Time;durP1;ratioP1;P1;durP2;ratioP2;P2;SDS_P1;SDS_P2;PMS_P1;PMS_P2;Temp;Humidity;BMP_temperature;BMP_pressure;BME280_temperature;BME280_humidity;BME280_pressure;Samples;Min_cycle;Max_cycle;Signal;HPM_P1;HPM_P2
2022/05/20 00:00:26;;;;;;;33.27;29.97;;;;;;;13.65;85.18;102131.69;6229796;23;20076;-79
2022/05/20 00:02:51;;;;;;;35.97;31.67;;;;;;;13.62;84.99;102124.75;6230004;23;20243;-79
2022/05/20 00:05:17;;;;;;;33.03;29.63;;;;;;;13.62;84.83;102123.88;6228539;23;20000;-79
2022/05/20 00:07:42;;;;;;;33.53;29.92;;;;;;;13.58;85.21;102128.59;6229288;23;20087;-79
2022/05/20 00:10:10;;;;;;;34.40;30.80;;;;;;;13.54;84.53;102134.22;6229119;23;20004;-81
2022/05/20 00:12:36;;;;;;;34.22;30.67;;;;;;;13.53;85.26;102127.19;6228434;23;20050;-79
2022/05/20 00:15:01;;;;;;;35.15;31.40;;;;;;;13.50;85.32;102126.44;6227306;23;20071;-80
2022/05/20 00:17:27;;;;;;;35.60;31.77;;;;;;;13.50;84.87;102125.59;6229030;23;20004;-79
2022/05/20 00:19:52;;;;;;;33.90;30.30;;;;;;;13.45;85.05;102120.56;6233681;23;20008;-81
2022/05/20 00:22:18;;;;;;;35.85;32.03;;;;;;;13.41;85.90;102127.06;6242821;22;20004;-79
2022/05/20 00:27:27;;;;;;;35.50;31.38;;;;;;;13.32;85.96;102123.22;6243748;22;20011;-80
2022/05/20 00:29:52;;;;;;;38.08;33.13;;;;;;;13.27;86.05;102119.97;6238670;22;20005;-79
2022/05/20 00:32:17;;;;;;;35.07;31.27;;;;;;;13.29;86.06;102112.72;6227234;23;20079;-79
2022/05/20 00:34:43;;;;;;;36.38;32.60;;;;;;;13.29;85.23;102109.22;6226297;23;20236;-79
2022/05/20 00:37:08;;;;;;;36.15;31.88;;;;;;;13.23;85.50;102110.47;6228211;23;20005;-79
2022/05/20 00:39:33;;;;;;;35.70;32.05;;;;;;;13.19;86.49;102116.09;6229165;23;20005;-79
2022/05/20 00:41:58;;;;;;;34.93;31.17;;;;;;;13.15;86.18;102110.13;6229302;23;20385;-79
2022/05/20 00:44:24;;;;;;;35.03;31.35;;;;;;;13.16;85.57;102114.50;6228394;23;20240;-79
2022/05/20 00:46:49;;;;;;;33.95;30.42;;;;;;;13.17;85.80;102108.19;6204135;23;20019;-79
2022/05/20 00:49:15;;;;;;;36.03;32.10;;;;;;;13.11;86.41;102106.81;6229626;23;20004;-79
2022/05/20 00:51:47;;;;;;;33.80;30.10;;;;;;;13.06;86.16;102110.75;6229488;23;20247;-79
2022/05/20 00:54:22;;;;;;;38.05;31.23;;;;;;;13.08;85.93;102115.00;6228552;23;20009;-79
2022/05/20 00:57:04;;;;;;;34.63;30.80;;;;;;;13.01;85.80;102108.38;6227784;23;20001;-81
2022/05/20 00:59:33;;;;;;;33.70;30.27;;;;;;;12.98;85.82;102102.41;6228364;23;20012;-79
2022/05/20 01:02:08;;;;;;;34.33;30.87;;;;;;;12.91;85.59;102110.81;6232929;23;20001;-80
2022/05/20 01:04:34;;;;;;;39.15;30.77;;;;;;;12.88;85.90;102112.81;6229211;23;20005;-79
2022/05/20 01:07:00;;;;;;;32.55;29.13;;;;;;;12.89;86.00;102107.41;6229108;23;20100;-79
2022/05/20 01:09:25;;;;;;;33.08;29.23;;;;;;;12.88;85.66;102115.50;6229057;23;20326;-79
2022/05/20 01:11:51;;;;;;;32.53;29.23;;;;;;;12.82;85.71;102110.56;6228967;23;20006;-80
2022/05/20 01:14:22;;;;;;;30.42;27.35;;;;;;;12.80;85.90;102112.47;6229836;23;20008;-79
2022/05/20 01:16:48;;;;;;;29.83;26.60;;;;;;;12.82;85.69;102118.56;6230578;23;20052;-79
2022/05/20 01:19:24;;;;;;;32.65;26.77;;;;;;;12.78;86.06;102124.09;6203825;23;20031;-79
2022/05/20 01:21:50;;;;;;;31.85;28.58;;;;;;;12.74;86.43;102111.94;6229921;23;20008;-79
2022/05/20 01:24:15;;;;;;;32.63;29.23;;;;;;;12.74;85.69;102117.25;6230725;23;20007;-79
2022/05/20 01:26:40;;;;;;;32.10;28.77;;;;;;;12.73;85.95;102114.69;6231064;23;20058;-79
2022/05/20 01:29:07;;;;;;;32.97;29.37;;;;;;;12.71;86.14;102112.13;6204021;23;20274;-79
2022/05/20 01:31:32;;;;;;;33.63;29.05;;;;;;;12.67;86.08;102102.59;6230546;23;20240;-79
2022/05/20 01:33:57;;;;;;;33.78;30.38;;;;;;;12.70;86.25;102096.22;6229176;23;20008;-79
2022/05/20 01:36:25;;;;;;;33.13;29.53;;;;;;;12.68;86.67;102098.16;6230380;23;20000;-79
2022/05/20 01:38:52;;;;;;;36.25;32.17;;;;;;;12.66;86.90;102094.72;6230173;23;20247;-80
2022/05/20 01:41:27;;;;;;;34.97;31.25;;;;;;;12.65;86.93;102090.34;6228521;23;20087;-80
2022/05/20 01:43:55;;;;;;;35.10;31.40;;;;;;;12.62;87.21;102091.38;6229196;23;20011;-80
2022/05/20 01:46:25;;;;;;;35.30;31.60;;;;;;;12.59;87.25;102083.63;6229588;23;20009;-80
2022/05/20 01:49:14;;;;;;;36.20;32.42;;;;;;;12.62;87.13;102082.53;6228926;23;20005;-79
2022/05/20 01:51:46;;;;;;;37.00;32.33;;;;;;;12.59;87.26;102075.63;6201807;23;20000;-79
2022/05/20 01:54:23;;;;;;;30.52;27.33;;;;;;;12.59;86.22;102075.63;6229230;23;20010;-79
2022/05/20 01:56:54;;;;;;;32.20;28.88;;;;;;;12.55;86.78;102084.75;6229476;23;20031;-79
2022/05/20 01:59:36;;;;;;;31.58;28.27;;;;;;;12.57;86.33;102083.72;6231256;23;20458;-80
2022/05/20 02:02:08;;;;;;;33.47;30.10;;;;;;;12.47;86.97;102074.59;6202148;23;20012;-79
2022/05/20 02:04:51;;;;;;;34.22;30.73;;;;;;;12.48;87.16;102078.97;6228872;23;20035;-79
2022/05/20 02:07:24;;;;;;;32.92;29.33;;;;;;;12.43;87.06;102072.25;6229954;23;20055;-79
2022/05/20 02:09:56;;;;;;;31.52;28.25;;;;;;;12.44;86.20;102069.47;6229131;23;20326;-80
2022/05/20 02:12:25;;;;;;;34.00;30.63;;;;;;;12.34;86.54;102069.22;6228207;23;20054;-80
2022/05/20 02:14:55;;;;;;;30.65;27.40;;;;;;;12.35;86.32;102068.25;6227866;23;20043;-79
2022/05/20 02:17:24;;;;;;;31.13;27.83;;;;;;;12.30;85.95;102067.69;6228393;23;20059;-79
2022/05/20 02:19:57;;;;;;;29.90;26.95;;;;;;;12.33;86.08;102071.97;6228217;23;20001;-80
2022/05/20 02:22:29;;;;;;;31.88;28.48;;;;;;;12.27;86.91;102070.53;6228162;23;20087;-80
2022/05/20 02:24:57;;;;;;;31.33;27.92;;;;;;;12.27;87.01;102075.88;6228309;23;20051;-79
2022/05/20 02:27:26;;;;;;;30.83;27.52;;;;;;;12.28;86.86;102068.75;6228679;23;20011;-80
2022/05/20 02:30:09;;;;;;;31.67;28.40;;;;;;;12.29;86.64;102066.00;6227563;23;20001;-80
2022/05/20 02:32:45;;;;;;;30.98;27.65;;;;;;;12.27;86.44;102067.03;6201271;23;20392;-80
2022/05/20 02:35:11;;;;;;;29.20;26.10;;;;;;;12.21;86.45;102066.47;6227928;23;20005;-79
2022/05/20 02:37:38;;;;;;;30.30;27.10;;;;;;;12.21;86.80;102070.97;6227511;23;20012;-79
2022/05/20 02:40:06;;;;;;;29.70;26.65;;;;;;;12.15;86.37;102072.19;6199383;23;20004;-79
2022/05/20 02:42:31;;;;;;;29.40;26.40;;;;;;;12.16;86.05;102075.72;6225599;23;20004;-79
2022/05/20 02:45:01;;;;;;;29.52;26.33;;;;;;;12.15;86.13;102077.50;6226010;23;20012;-79
2022/05/20 02:47:32;;;;;;;29.35;26.40;;;;;;;12.13;85.53;102060.78;6226537;23;20000;-79
2022/05/20 02:50:02;;;;;;;29.50;25.52;;;;;;;12.16;85.49;102062.41;6227190;23;20005;-79
2022/05/20 02:52:27;;;;;;;27.83;24.90;;;;;;;12.11;86.06;102064.50;6228387;23;20005;-79
2022/05/20 02:54:53;;;;;;;28.77;25.77;;;;;;;12.07;86.14;102066.50;6227216;23;20329;-79
2022/05/20 02:57:18;;;;;;;28.10;25.30;;;;;;;12.06;85.48;102062.13;6229045;23;20240;-78
2022/05/20 03:05:13;;;;;;;27.88;24.45;;;;;;;12.04;85.41;102061.38;6231110;23;20020;-79
2022/05/20 03:07:38;;;;;;;27.27;24.45;;;;;;;11.99;85.25;102053.69;6229073;23;20020;-79
2022/05/20 03:10:04;;;;;;;26.33;23.48;;;;;;;11.98;85.09;102041.31;6229971;23;20012;-79
2022/05/20 03:12:29;;;;;;;26.48;23.75;;;;;;;11.91;86.03;102055.09;6200702;23;20643;-79
2022/05/20 03:14:55;;;;;;;25.10;21.90;;;;;;;11.91;85.92;102042.66;6226719;23;20001;-80
2022/05/20 03:17:20;;;;;;;27.08;24.27;;;;;;;11.89;86.17;102052.53;6227785;23;20011;-79
2022/05/20 03:19:45;;;;;;;24.40;21.90;;;;;;;11.88;86.44;102056.13;6203229;23;20031;-79
2022/05/20 03:22:10;;;;;;;25.17;22.47;;;;;;;11.86;86.27;102063.34;6229355;23;20008;-79
2022/05/20 03:24:37;;;;;;;25.03;22.00;;;;;;;11.84;85.85;102052.81;6201021;23;20665;-79
2022/05/20 03:27:03;;;;;;;25.73;23.15;;;;;;;11.83;86.60;102056.41;6227963;23;20236;-79
2022/05/20 03:29:29;;;;;;;26.67;23.83;;;;;;;11.83;86.96;102047.56;6228898;23;20000;-79
2022/05/20 03:31:55;;;;;;;28.40;25.35;;;;;;;11.81;86.90;102045.00;6227276;23;20000;-79
2022/05/20 03:34:21;;;;;;;27.98;24.80;;;;;;;11.81;86.70;102047.66;6226534;23;20445;-79
2022/05/20 03:36:48;;;;;;;27.08;24.25;;;;;;;11.82;87.08;102045.84;6224959;23;20083;-80
2022/05/20 03:39:16;;;;;;;27.30;24.45;;;;;;;11.77;87.32;102038.16;6226276;23;20022;-79
2022/05/20 03:41:42;;;;;;;29.63;25.80;;;;;;;11.76;87.56;102046.25;6227925;23;20028;-79
2022/05/20 03:44:09;;;;;;;27.48;24.45;;;;;;;11.80;87.23;102045.94;6229430;23;20019;-80
2022/05/20 03:46:43;;;;;;;28.15;25.13;;;;;;;11.78;87.88;102042.53;6228811;23;20001;-80
2022/05/20 03:49:09;;;;;;;26.00;23.20;;;;;;;11.84;87.02;102043.97;6225596;23;20446;-79
2022/05/20 03:51:35;;;;;;;25.83;23.02;;;;;;;11.82;86.94;102036.09;6225718;23;20005;-79
2022/05/20 03:54:00;;;;;;;25.45;22.80;;;;;;;11.85;88.08;102033.19;6226772;23;20058;-79
2022/05/20 03:56:25;;;;;;;25.77;23.08;;;;;;;11.88;87.95;102034.81;6227263;23;20005;-80
2022/05/20 03:58:51;;;;;;;24.10;21.25;;;;;;;11.87;nan;102027.78;6200352;23;20350;-79
2022/05/20 04:04:02;;;;;;;17.42;15.73;;;;;;;11.83;86.17;102012.97;6228281;23;20035;-79
2022/05/20 04:06:27;;;;;;;14.30;12.70;;;;;;;11.77;86.16;102006.22;6200191;23;20005;-80
2022/05/20 04:08:53;;;;;;;14.40;13.00;;;;;;;11.77;86.18;102008.03;6227700;23;20437;-79
2022/05/20 04:11:19;;;;;;;15.32;13.82;;;;;;;11.79;86.33;102014.09;6199809;23;20008;-79
2022/05/20 04:13:44;;;;;;;14.10;12.70;;;;;;;11.76;86.56;102007.19;6226372;23;20004;-79
2022/05/20 04:16:12;;;;;;;17.23;15.43;;;;;;;11.77;86.68;102005.38;6226861;23;20019;-79
2022/05/20 04:18:43;;;;;;;18.40;16.35;;;;;;;11.78;87.12;102001.75;6227986;23;20004;-79
2022/05/20 04:21:13;;;;;;;19.75;17.65;;;;;;;11.78;86.68;101999.94;6227668;23;20005;-79
2022/05/20 04:23:39;;;;;;;22.73;20.25;;;;;;;11.79;86.77;101999.00;6227055;23;20058;-79
2022/05/20 04:26:05;;;;;;;23.45;20.13;;;;;;;11.79;87.70;102003.44;6227387;23;20001;-79
2022/05/20 04:28:30;;;;;;;24.10;21.67;;;;;;;11.84;87.92;102010.22;6242972;22;20039;-79
2022/05/20 04:30:58;;;;;;;26.38;23.65;;;;;;;11.85;88.93;102003.06;6243820;22;19993;-80
2022/05/20 04:33:24;;;;;;;26.77;24.13;;;;;;;11.88;88.58;101997.56;6228460;23;20016;-79
2022/05/20 04:35:50;;;;;;;27.95;24.95;;;;;;;11.91;88.73;102005.38;6227823;23;20039;-80
2022/05/20 04:38:15;;;;;;;29.95;25.85;;;;;;;11.95;89.25;102000.72;6227668;23;20388;-79
2022/05/20 04:40:40;;;;;;;31.90;27.43;;;;;;;11.98;88.89;101998.72;6229995;23;20047;-79
2022/05/20 04:48:34;;;;;;;40.80;36.38;;;;;;;12.15;91.27;102018.06;6230132;23;20062;-79
2022/05/20 04:51:00;;;;;;;42.75;38.25;;;;;;;12.23;91.16;102026.44;6230075;23;20008;-79
2022/05/20 04:56:09;;;;;;;45.30;39.58;;;;;;;12.36;92.11;102032.66;6227612;23;20306;-80
2022/05/20 04:58:35;;;;;;;46.55;41.53;;;;;;;12.46;92.14;102034.75;6229542;23;20016;-80
2022/05/20 05:01:00;;;;;;;52.05;43.70;;;;;;;12.55;92.50;102031.44;6226748;23;20012;-80
2022/05/20 05:03:26;;;;;;;50.23;44.23;;;;;;;12.64;92.11;102019.31;6227924;23;20457;-79
2022/05/20 05:05:51;;;;;;;53.93;46.20;;;;;;;12.70;91.96;102017.09;6201873;23;20256;-79
2022/05/20 05:08:16;;;;;;;49.72;44.30;;;;;;;12.81;92.07;102032.41;6229251;23;20268;-79
2022/05/20 05:10:43;;;;;;;49.25;43.92;;;;;;;12.87;92.03;102025.78;6229021;23;20004;-79
2022/05/20 05:13:10;;;;;;;51.75;44.97;;;;;;;12.91;92.21;102014.81;6229643;23;20088;-79
2022/05/20 05:15:36;;;;;;;55.53;44.90;;;;;;;12.97;92.09;102021.53;6227808;23;20031;-79
2022/05/20 05:18:12;;;;;;;51.58;45.97;;;;;;;13.01;92.43;102031.03;6229798;23;20016;-79
2022/05/20 05:20:50;;;;;;;50.92;45.42;;;;;;;13.10;92.01;102030.41;6230148;23;20011;-79
2022/05/20 05:23:19;;;;;;;53.70;45.30;;;;;;;13.14;92.08;102029.25;6227824;23;20000;-79
2022/05/20 05:25:49;;;;;;;53.92;44.55;;;;;;;13.19;92.30;102028.06;6229214;23;20015;-79
2022/05/20 05:28:14;;;;;;;56.70;45.85;;;;;;;13.25;91.98;102030.31;6230016;23;20000;-79
2022/05/20 05:30:42;;;;;;;52.70;44.28;;;;;;;13.32;91.88;102024.50;6229199;23;20422;-78
2022/05/20 05:33:08;;;;;;;57.25;46.28;;;;;;;13.36;91.96;102019.78;6202353;23;20004;-79
2022/05/20 05:35:34;;;;;;;51.80;43.38;;;;;;;13.39;91.23;102011.56;6227435;23;20123;-79
2022/05/20 05:37:59;;;;;;;49.72;42.97;;;;;;;13.42;91.22;102002.50;6227602;23;20080;-78
2022/05/20 05:40:28;;;;;;;48.38;43.20;;;;;;;13.43;90.84;101996.19;6230810;23;20070;-78
2022/05/20 05:42:59;;;;;;;51.05;44.00;;;;;;;13.52;91.06;101992.88;6208704;23;20005;-78
2022/05/20 05:45:26;;;;;;;46.58;41.53;;;;;;;13.65;90.53;101999.03;6228762;23;20394;-79
2022/05/20 05:47:54;;;;;;;44.72;40.03;;;;;;;13.75;89.76;101987.72;6226735;23;20437;-78
2022/05/20 05:50:20;;;;;;;40.97;36.83;;;;;;;13.90;89.12;101991.94;6228360;23;20019;-78
2022/05/20 05:52:46;;;;;;;38.95;35.00;;;;;;;13.91;87.81;101992.81;6227577;23;20379;-79
2022/05/20 05:55:11;;;;;;;37.50;33.45;;;;;;;14.00;87.94;101986.78;6225869;23;20024;-79
2022/05/20 05:57:37;;;;;;;37.67;33.78;;;;;;;14.11;87.96;101981.53;6227374;23;20410;-78
2022/05/20 06:00:03;;;;;;;35.53;31.75;;;;;;;14.22;86.50;102002.97;6199814;23;20020;-78
2022/05/20 06:02:28;;;;;;;34.88;30.17;;;;;;;14.29;85.96;101994.47;6225048;23;20000;-78
2022/05/20 06:04:54;;;;;;;31.55;28.23;;;;;;;14.35;85.41;101989.53;6225885;23;20011;-79
2022/05/20 06:07:19;;;;;;;31.60;28.10;;;;;;;14.44;85.09;101988.84;6197555;23;20025;-78
2022/05/20 06:09:45;;;;;;;35.63;28.55;;;;;;;14.64;84.84;101983.88;6226526;23;20016;-79
2022/05/20 06:12:12;;;;;;;31.35;26.85;;;;;;;14.82;83.31;101994.97;6225161;23;20009;-79
2022/05/20 06:14:38;;;;;;;28.38;25.33;;;;;;;14.99;83.76;101986.50;6223519;23;20011;-79
2022/05/20 06:17:04;;;;;;;26.77;23.98;;;;;;;15.12;82.35;101975.72;6221014;23;20009;-79
2022/05/20 06:19:29;;;;;;;26.75;22.67;;;;;;;15.33;82.31;101980.34;6206095;23;20000;-79
2022/05/20 06:21:55;;;;;;;23.58;20.50;;;;;;;15.44;79.98;101976.84;6228360;23;20000;-80
2022/05/20 06:24:20;;;;;;;24.15;21.55;;;;;;;15.66;79.50;101978.66;6227298;23;20005;-80
2022/05/20 06:26:47;;;;;;;23.50;19.80;;;;;;;15.79;77.37;101978.56;6228580;23;20004;-79
2022/05/20 06:29:12;;;;;;;20.30;17.60;;;;;;;15.95;75.90;101972.78;6222348;23;20251;-79
2022/05/20 06:31:38;;;;;;;19.80;17.70;;;;;;;16.13;76.00;101981.16;6224509;23;20008;-78
2022/05/20 06:34:04;;;;;;;17.95;15.32;;;;;;;16.30;75.20;101971.72;6224114;23;20036;-80
2022/05/20 06:41:54;;;;;;;15.68;13.63;;;;;;;16.34;71.54;101946.38;6228098;23;20009;-79
2022/05/20 06:44:20;;;;;;;16.88;13.07;;;;;;;16.52;72.03;101946.63;6221285;23;20019;-79
2022/05/20 06:46:46;;;;;;;16.38;12.25;;;;;;;16.69;70.49;101954.09;6224402;23;20008;-78
2022/05/20 06:49:12;;;;;;;16.50;11.98;;;;;;;16.85;69.94;101947.44;6227998;23;20001;-79
2022/05/20 06:51:38;;;;;;;15.30;12.50;;;;;;;16.94;68.17;101955.56;6231274;23;20012;-78
2022/05/20 06:54:07;;;;;;;14.18;11.88;;;;;;;17.00;68.13;101952.38;6201444;23;20102;-78
2022/05/20 06:56:33;;;;;;;15.95;12.80;;;;;;;17.02;68.13;101949.56;6224119;23;20005;-78
2022/05/20 06:59:00;;;;;;;15.65;12.98;;;;;;;16.98;68.05;101950.78;6227130;23;20059;-79
2022/05/20 07:01:26;;;;;;;14.65;12.02;;;;;;;17.07;69.76;101941.94;6230194;23;20034;-79
2022/05/20 07:03:52;;;;;;;15.98;12.98;;;;;;;17.27;67.95;101944.69;6230327;23;20020;-78
2022/05/20 07:06:30;;;;;;;15.10;12.05;;;;;;;17.44;67.41;101930.66;6241009;22;19993;-81
2022/05/20 07:08:55;;;;;;;15.68;11.48;;;;;;;17.65;66.00;101927.03;6214921;23;20028;-80
2022/05/20 07:11:22;;;;;;;15.33;11.43;;;;;;;17.79;66.05;101931.19;6242709;22;20020;-79
2022/05/20 07:13:49;;;;;;;14.80;11.68;;;;;;;17.83;64.93;101920.00;6217914;22;20252;-79
2022/05/20 07:16:15;;;;;;;15.32;11.80;;;;;;;17.93;65.26;101922.72;6244122;22;19993;-80
2022/05/20 07:18:40;;;;;;;12.07;10.80;;;;;;;18.11;66.53;101912.97;6244053;22;19996;-80
2022/05/20 07:21:06;;;;;;;15.77;12.15;;;;;;;18.24;65.54;101912.72;6244738;22;20044;-80
2022/05/20 07:23:32;;;;;;;16.58;11.10;;;;;;;18.37;66.09;101904.38;6244485;22;20015;-80
2022/05/20 07:25:57;;;;;;;14.85;10.93;;;;;;;18.66;63.84;101912.38;6243716;22;20010;-77
2022/05/20 07:28:24;;;;;;;12.38;9.65;;;;;;;18.86;62.77;101902.44;6241653;23;20086;-79
2022/05/20 07:30:49;;;;;;;12.95;9.07;;;;;;;19.15;61.99;101903.34;6242482;22;19995;-79
2022/05/20 07:33:15;;;;;;;15.35;9.05;;;;;;;19.41;61.38;101898.13;6241091;22;20040;-79
2022/05/20 07:35:40;;;;;;;11.33;8.57;;;;;;;19.60;60.98;101898.00;6240225;23;19992;-79
2022/05/20 07:38:07;;;;;;;9.32;7.10;;;;;;;19.68;58.94;101901.78;6244268;23;20247;-80
2022/05/20 07:40:32;;;;;;;9.52;6.85;;;;;;;19.72;57.28;101905.91;6244434;22;19995;-80
2022/05/20 07:42:58;;;;;;;11.32;7.32;;;;;;;19.84;57.50;101902.00;6244357;23;20008;-79
2022/05/20 07:45:24;;;;;;;10.73;6.15;;;;;;;19.87;56.48;101882.00;6213877;23;20015;-78
2022/05/20 07:47:50;;;;;;;10.68;7.00;;;;;;;19.84;55.70;101872.34;6236139;22;20019;-80
2022/05/20 07:50:16;;;;;;;10.05;6.38;;;;;;;19.91;55.73;101869.88;6243283;22;19989;-81
2022/05/20 07:55:32;;;;;;;15.85;5.72;;;;;;;20.11;54.76;101865.19;6244087;22;20030;-79
2022/05/20 07:58:02;;;;;;;11.60;5.15;;;;;;;20.40;55.88;101869.44;6239998;22;20024;-77
2022/05/20 08:00:28;;;;;;;9.15;5.00;;;;;;;20.48;53.38;101869.50;6236953;23;20055;-78
2022/05/20 08:02:57;;;;;;;14.10;6.13;;;;;;;20.54;53.56;101851.84;6238691;22;19997;-81
2022/05/20 08:05:23;;;;;;;6.57;5.50;;;;;;;20.84;56.79;101845.97;6244407;22;20013;-81
2022/05/20 08:07:49;;;;;;;9.10;5.65;;;;;;;20.91;52.17;101840.78;6243229;22;20011;-80
2022/05/20 08:10:21;;;;;;;9.90;6.00;;;;;;;21.16;52.50;101849.81;6244022;22;19997;-80
2022/05/20 08:12:48;;;;;;;9.27;5.50;;;;;;;21.29;51.41;101841.28;6244287;22;19996;-80
2022/05/20 08:15:15;;;;;;;9.63;5.07;;;;;;;21.37;49.98;101843.16;6244185;22;20040;-80
2022/05/20 08:17:42;;;;;;;8.93;5.35;;;;;;;21.47;49.22;101852.00;6244142;22;20030;-80
2022/05/20 08:20:22;;;;;;;9.13;5.45;;;;;;;21.60;49.38;101838.00;6244260;22;20015;-81
2022/05/20 08:22:51;;;;;;;10.27;5.32;;;;;;;21.71;51.57;101842.25;6244135;22;20048;-81
2022/05/20 08:25:17;;;;;;;11.27;5.45;;;;;;;21.59;47.81;101831.75;6244136;22;19993;-80
2022/05/20 08:27:43;;;;;;;8.55;5.03;;;;;;;21.70;48.71;101822.47;6244307;22;19996;-81
2022/05/20 08:30:18;;;;;;;15.38;5.32;;;;;;;21.73;49.47;101832.09;6244190;22;20019;-81
2022/05/20 08:32:43;;;;;;;10.88;5.82;;;;;;;21.71;47.29;101826.84;6244355;22;20019;-80
2022/05/20 08:35:10;;;;;;;9.02;5.75;;;;;;;21.73;49.85;101821.28;6244330;22;20009;-81
2022/05/20 08:37:40;;;;;;;9.15;6.40;;;;;;;21.60;49.07;101814.53;6214026;23;20004;-78
2022/05/20 08:40:09;;;;;;;9.07;5.90;;;;;;;21.42;49.08;101808.38;6240513;23;20020;-78
2022/05/20 08:42:36;;;;;;;11.32;5.85;;;;;;;21.40;49.17;101802.28;6238022;22;20023;-79
2022/05/20 08:45:03;;;;;;;11.90;6.07;;;;;;;21.46;50.25;101787.25;6215945;23;20127;-82
2022/05/20 08:47:43;;;;;;;9.40;6.70;;;;;;;21.53;51.24;101772.09;6243823;22;20016;-81
2022/05/20 08:50:21;;;;;;;10.10;6.15;;;;;;;21.57;50.30;101766.19;6243974;22;20024;-80
2022/05/20 08:52:50;;;;;;;10.23;6.18;;;;;;;21.72;49.29;101771.78;6244060;22;19993;-82
2022/05/20 08:55:16;;;;;;;9.27;6.43;;;;;;;21.97;50.14;101756.38;6243108;22;20036;-80
2022/05/20 08:57:58;;;;;;;9.98;7.15;;;;;;;22.17;49.77;101761.44;6243296;22;19989;-79
2022/05/20 09:00:24;;;;;;;12.20;6.90;;;;;;;22.37;50.50;101770.06;6243063;22;20035;-81
2022/05/20 09:02:49;;;;;;;10.25;7.25;;;;;;;22.37;48.13;101764.63;6243324;22;20023;-80
2022/05/20 09:05:29;;;;;;;13.65;8.65;;;;;;;22.32;49.70;101775.97;6243055;22;19996;-81
2022/05/20 09:08:02;;;;;;;11.35;7.95;;;;;;;22.29;49.17;101767.38;6212288;23;20021;-80
2022/05/20 09:10:35;;;;;;;11.02;8.82;;;;;;;22.27;49.49;101755.84;6212922;23;20002;-81
2022/05/20 09:16:17;;;;;;;12.77;9.38;;;;;;;22.12;48.69;101745.72;6207881;23;20079;-79
2022/05/20 09:19:03;;;;;;;12.02;9.65;;;;;;;22.38;51.23;101739.25;6207235;23;20057;-79
2022/05/20 09:21:38;;;;;;;11.98;8.82;;;;;;;22.71;49.89;101733.72;6209757;23;20013;-81
2022/05/20 09:24:07;;;;;;;16.80;8.88;;;;;;;22.65;47.97;101720.88;6210125;23;20092;-79
2022/05/20 09:26:38;;;;;;;13.18;9.48;;;;;;;22.69;49.71;101712.22;6214273;23;20048;-78
2022/05/20 09:29:11;;;;;;;12.95;9.32;;;;;;;22.93;48.73;101702.28;6213210;23;20005;-81
2022/05/20 09:31:44;;;;;;;12.90;9.38;;;;;;;23.15;49.00;101691.66;6213106;23;20007;-80
2022/05/20 09:34:31;;;;;;;12.73;10.07;;;;;;;23.21;48.47;101693.66;6213237;23;19993;-78
2022/05/20 09:37:17;;;;;;;13.35;9.95;;;;;;;23.17;48.95;101697.78;6212852;23;20005;-78
2022/05/20 09:39:46;;;;;;;13.80;10.43;;;;;;;23.19;47.78;101693.00;6213124;23;20017;-80
2022/05/20 09:42:22;;;;;;;16.53;10.93;;;;;;;23.26;49.14;101685.84;6214570;23;20000;-82
2022/05/20 09:44:49;;;;;;;18.13;12.60;;;;;;;23.37;48.83;101676.44;6213201;23;20116;-83
2022/05/20 09:47:40;;;;;;;18.92;12.35;;;;;;;23.52;50.52;101668.38;6214514;23;20000;-83
2022/05/20 09:50:28;;;;;;;19.77;12.30;;;;;;;23.78;49.36;101652.50;6213689;23;19997;-82
2022/05/20 09:52:55;;;;;;;18.63;12.90;;;;;;;23.83;47.93;101644.69;6207014;23;19985;-81
2022/05/20 09:55:29;;;;;;;17.40;13.48;;;;;;;23.76;47.68;101646.41;6209676;23;20028;-80
2022/05/20 09:57:57;;;;;;;19.95;13.10;;;;;;;23.88;47.70;101638.72;6210020;23;20381;-77
2022/05/20 10:00:26;;;;;;;16.27;13.00;;;;;;;23.97;48.08;101634.84;6208234;23;20025;-80
2022/05/20 10:03:01;;;;;;;16.20;12.40;;;;;;;24.01;47.97;101610.91;6203939;23;20370;-79
2022/05/20 10:05:59;;;;;;;17.92;12.02;;;;;;;24.13;49.49;101603.97;6213534;23;19989;-81
2022/05/20 10:08:34;;;;;;;23.70;13.52;;;;;;;24.15;47.41;101588.34;6237356;22;20039;-80
2022/05/20 10:11:24;;;;;;;15.63;12.55;;;;;;;24.28;47.67;101586.81;6242312;22;20056;-80
2022/05/20 10:14:05;;;;;;;14.65;11.95;;;;;;;24.23;47.44;101581.97;6244352;22;20023;-80
2022/05/20 10:16:50;;;;;;;13.50;11.68;;;;;;;24.22;48.73;101580.28;6242896;22;20333;-80
2022/05/20 10:19:31;;;;;;;15.80;11.55;;;;;;;24.20;48.06;101569.63;6243033;22;20005;-80
2022/05/20 10:22:07;;;;;;;15.43;10.85;;;;;;;24.20;48.25;101564.19;6244497;22;20000;-81
2022/05/20 10:24:54;;;;;;;18.38;12.00;;;;;;;24.35;49.20;101542.44;6244526;22;19985;-81
2022/05/20 10:27:23;;;;;;;17.90;12.55;;;;;;;24.22;47.17;101544.16;6244742;22;19989;-81
2022/05/20 10:33:00;;;;;;;15.48;11.45;;;;;;;23.92;48.28;101539.63;6243166;22;20008;-82
2022/05/20 10:35:32;;;;;;;16.83;11.95;;;;;;;23.90;48.29;101535.41;6243429;22;20000;-81
2022/05/20 10:38:19;;;;;;;18.95;11.48;;;;;;;23.87;48.80;101512.22;6243419;22;20024;-81
2022/05/20 10:41:08;;;;;;;15.98;10.60;;;;;;;23.70;47.99;101508.84;6217548;22;19996;-81
2022/05/20 10:50:16;;;;;;;15.32;11.50;;;;;;;23.34;49.72;101460.78;6244466;22;20031;-81
2022/05/20 10:53:04;;;;;;;14.50;10.57;;;;;;;23.28;49.77;101456.97;6244334;22;19996;-80
2022/05/20 10:56:21;;;;;;;15.38;10.40;;;;;;;23.29;50.46;101438.81;6241893;22;20004;-79
2022/05/20 10:59:29;;;;;;;15.40;10.57;;;;;;;23.17;49.92;101430.31;6188242;22;19993;-80
2022/05/20 11:02:19;;;;;;;14.93;12.20;;;;;;;23.11;49.60;101405.84;6217113;22;20000;-79
2022/05/20 11:05:01;;;;;;;15.18;10.75;;;;;;;22.89;50.15;101394.88;6243603;22;19996;-79
2022/05/20 11:08:00;;;;;;;16.02;10.90;;;;;;;22.88;50.96;101393.19;6241394;23;20000;-79
2022/05/20 11:10:42;;;;;;;19.50;12.25;;;;;;;22.84;50.85;101375.63;6237522;23;20000;-77
2022/05/20 11:13:20;;;;;;;17.27;12.18;;;;;;;22.73;50.78;101371.50;6239763;23;19985;-79
2022/05/20 11:16:07;;;;;;;15.25;11.70;;;;;;;22.79;51.53;101368.06;6239498;22;20008;-79
2022/05/20 11:19:11;;;;;;;17.10;12.57;;;;;;;22.76;51.69;101368.41;6239766;23;20028;-79
2022/05/20 11:22:05;;;;;;;20.70;13.05;;;;;;;22.63;52.08;101363.66;6217162;23;20015;-79
2022/05/20 11:25:05;;;;;;;19.60;14.20;;;;;;;22.64;52.15;101353.66;6240271;23;20007;-80
2022/05/20 11:27:45;;;;;;;20.52;14.07;;;;;;;22.56;53.04;101349.16;6240513;22;20005;-80
2022/05/20 11:30:30;;;;;;;20.52;15.32;;;;;;;22.53;53.40;101346.81;6240174;22;19991;-81
2022/05/20 11:33:33;;;;;;;19.20;16.05;;;;;;;22.58;53.52;101348.97;6238135;23;20032;-80
2022/05/20 11:36:18;;;;;;;21.00;15.98;;;;;;;22.60;54.05;101345.06;6237728;23;20319;-81
2022/05/20 11:39:13;;;;;;;20.50;17.55;;;;;;;22.50;53.85;101339.94;6237765;23;20016;-81
2022/05/20 11:41:55;;;;;;;22.42;17.08;;;;;;;22.39;54.88;101334.13;6240886;22;19989;-81
2022/05/20 11:44:35;;;;;;;23.15;18.05;;;;;;;22.31;55.18;101327.75;6238669;23;20015;-80
2022/05/20 11:47:09;;;;;;;19.60;16.98;;;;;;;22.36;55.56;101327.19;6236665;23;20015;-79
2022/05/20 11:49:46;;;;;;;21.23;18.20;;;;;;;22.32;55.79;101324.03;6242170;22;19996;-80
2022/05/20 11:52:33;;;;;;;28.23;19.23;;;;;;;22.26;55.86;101292.25;6243882;22;19989;-80
2022/05/20 11:55:20;;;;;;;21.80;18.83;;;;;;;22.22;56.08;101272.00;6242036;22;20020;-80
2022/05/20 11:57:50;;;;;;;24.05;18.95;;;;;;;22.05;56.70;101275.88;6243412;22;19992;-80
2022/05/20 12:00:19;;;;;;;24.77;18.88;;;;;;;21.93;57.84;101284.44;6241893;22;19985;-80
2022/05/20 12:02:53;;;;;;;21.17;18.67;;;;;;;21.96;57.96;101292.16;6242603;22;20060;-80
2022/05/20 12:05:24;;;;;;;30.98;19.88;;;;;;;21.90;59.15;101348.84;6242302;22;20040;-80
2022/05/20 12:07:49;;;;;;;27.75;23.50;;;;;;;21.71;62.09;101325.84;6243224;22;20021;-80